createdAt,value
2017-06-17T00:00:59.277Z,24.03
2017-06-17T00:03:27.943Z,15.93
2017-06-17T00:05:56.121Z,14.80
2017-06-17T00:08:24.402Z,17.57
2017-06-17T00:10:52.964Z,16.70
2017-06-17T00:13:21.147Z,20.97
2017-06-17T00:15:49.531Z,16.83
2017-06-17T00:18:18.055Z,19.70
2017-06-17T00:20:46.343Z,14.43
2017-06-17T00:23:14.531Z,14.93
2017-06-17T00:25:43.138Z,16.37
2017-06-17T00:28:11.350Z,17.03
2017-06-17T00:30:40.291Z,13.10
2017-06-17T00:33:09.104Z,17.33
2017-06-17T00:35:37.300Z,21.63
2017-06-17T00:38:05.491Z,13.53
2017-06-17T00:40:34.218Z,17.83
2017-06-17T00:43:02.522Z,19.03
2017-06-17T00:45:30.805Z,24.30
2017-06-17T00:48:00.182Z,17.80
2017-06-17T00:50:28.378Z,17.83
2017-06-17T00:52:56.572Z,15.23
2017-06-17T00:55:25.090Z,15.57
2017-06-17T00:57:53.269Z,20.13
2017-06-17T01:00:21.483Z,16.93
2017-06-17T01:02:50.011Z,21.30
2017-06-17T01:05:18.211Z,19.87
2017-06-17T01:07:46.425Z,14.60
2017-06-17T01:10:15.066Z,23.40
2017-06-17T01:12:43.250Z,20.27
2017-06-17T01:15:11.463Z,12.37
2017-06-17T01:17:40.046Z,17.70
2017-06-17T01:20:08.240Z,17.17
2017-06-17T01:22:36.439Z,15.93
2017-06-17T01:25:04.959Z,14.80
2017-06-17T01:27:33.137Z,20.40
2017-06-17T01:30:02.079Z,30.27
2017-06-17T01:32:30.623Z,15.97
2017-06-17T01:34:58.779Z,12.03
2017-06-17T01:37:26.973Z,20.73
2017-06-17T01:39:55.590Z,31.50
2017-06-17T01:42:23.765Z,14.50
2017-06-17T01:44:51.976Z,21.23
2017-06-17T01:47:20.507Z,24.73
2017-06-17T01:49:48.673Z,17.43
2017-06-17T01:52:16.861Z,19.60
2017-06-17T01:54:45.445Z,27.53
2017-06-17T01:57:13.582Z,18.07
2017-06-17T01:59:41.756Z,17.77
2017-06-17T02:02:10.281Z,21.53
2017-06-17T02:04:38.465Z,21.90
2017-06-17T02:07:06.677Z,14.07
2017-06-17T02:09:35.212Z,15.90
2017-06-17T02:12:03.562Z,14.07
2017-06-17T02:14:31.733Z,17.03
2017-06-17T02:17:00.385Z,23.53
2017-06-17T02:19:29.375Z,17.87
2017-06-17T02:21:57.542Z,16.10
2017-06-17T02:24:26.834Z,15.10
2017-06-17T02:26:55.017Z,15.93
2017-06-17T02:29:23.961Z,14.67
2017-06-17T02:31:52.470Z,20.10
2017-06-17T02:34:21.817Z,18.53
2017-06-17T02:36:50.046Z,13.93
2017-06-17T02:39:18.598Z,15.80
2017-06-17T02:41:46.795Z,14.70
2017-06-17T02:44:14.965Z,15.80
2017-06-17T02:46:43.501Z,30.67
2017-06-17T02:49:11.716Z,14.33
2017-06-17T02:51:39.897Z,16.53
2017-06-17T02:54:08.457Z,19.13
2017-06-17T02:56:36.644Z,23.83
2017-06-17T02:59:04.831Z,23.00
2017-06-17T03:01:33.382Z,15.30
2017-06-17T03:04:01.551Z,16.60
2017-06-17T03:06:29.717Z,17.93
2017-06-17T03:08:58.226Z,12.63
2017-06-17T03:11:29.030Z,20.90
2017-06-17T03:13:57.206Z,12.70
2017-06-17T03:16:25.910Z,14.93
2017-06-17T03:18:54.113Z,19.90
2017-06-17T03:21:23.038Z,11.17
2017-06-17T03:23:51.545Z,11.73
2017-06-17T03:26:19.723Z,9.50
2017-06-17T03:28:47.926Z,13.00
2017-06-17T03:31:16.477Z,16.20
2017-06-17T03:33:44.643Z,19.87
2017-06-17T03:36:12.810Z,22.77
2017-06-17T03:38:41.407Z,13.63
2017-06-17T03:41:09.599Z,9.63
2017-06-17T03:43:37.792Z,11.97
2017-06-17T03:46:06.339Z,21.87
2017-06-17T03:48:34.630Z,10.23
2017-06-17T03:51:02.803Z,14.13
2017-06-17T03:53:31.371Z,21.30
2017-06-17T03:55:59.554Z,21.93
2017-06-17T03:58:27.727Z,14.87
2017-06-17T04:00:56.227Z,15.83
2017-06-17T04:03:24.399Z,12.00
2017-06-17T04:05:53.339Z,8.17
2017-06-17T04:08:21.942Z,9.83
2017-06-17T04:10:50.205Z,14.57
2017-06-17T04:13:18.407Z,10.73
2017-06-17T04:15:46.971Z,14.20
2017-06-17T04:18:15.220Z,15.83
2017-06-17T04:20:43.398Z,17.73
2017-06-17T04:23:12.031Z,14.53
2017-06-17T04:25:40.211Z,21.10
2017-06-17T04:28:09.154Z,7.90
2017-06-17T04:30:37.738Z,13.30
2017-06-17T04:33:05.919Z,15.80
2017-06-17T04:35:34.103Z,11.70
2017-06-17T04:38:02.643Z,12.00
2017-06-17T04:40:30.831Z,16.47
2017-06-17T04:42:59.019Z,12.83
2017-06-17T04:45:27.559Z,9.53
2017-06-17T04:47:55.728Z,13.50
2017-06-17T04:50:23.899Z,12.73
2017-06-17T04:52:52.534Z,9.53
2017-06-17T04:55:20.695Z,15.43
2017-06-17T04:57:48.878Z,17.67
2017-06-17T05:00:17.455Z,13.80
2017-06-17T05:02:45.813Z,14.03
2017-06-17T05:05:13.994Z,15.03
2017-06-17T05:07:42.603Z,7.80
2017-06-17T05:10:10.775Z,13.17
2017-06-17T05:12:38.951Z,11.23
2017-06-17T05:15:07.491Z,19.10
2017-06-17T05:17:35.683Z,11.53
2017-06-17T05:20:03.844Z,9.00
2017-06-17T05:22:32.366Z,11.23
2017-06-17T05:25:00.930Z,16.53
2017-06-17T05:27:29.176Z,14.73
2017-06-17T05:29:57.786Z,9.80
2017-06-17T05:32:25.961Z,10.10
2017-06-17T05:34:54.331Z,7.13
2017-06-17T05:37:23.994Z,12.03
2017-06-17T05:39:52.269Z,12.30
2017-06-17T05:42:20.451Z,11.50
2017-06-17T05:44:49.078Z,13.70
2017-06-17T05:47:17.267Z,16.90
2017-06-17T05:49:45.473Z,9.13
2017-06-17T05:52:14.223Z,10.63
2017-06-17T05:54:42.417Z,8.23
2017-06-17T05:57:10.627Z,10.67
2017-06-17T05:59:39.139Z,12.17
2017-06-17T06:02:07.339Z,8.37
2017-06-17T06:04:35.540Z,7.17
2017-06-17T06:07:04.149Z,12.47
2017-06-17T06:09:32.344Z,8.30
2017-06-17T06:12:00.533Z,10.73
2017-06-17T06:14:29.106Z,11.70
2017-06-17T06:16:57.301Z,6.27
2017-06-17T06:19:25.489Z,14.23
2017-06-17T06:21:53.999Z,6.00
2017-06-17T06:24:22.159Z,10.57
2017-06-17T06:26:50.330Z,10.07
2017-06-17T06:29:18.834Z,9.73
2017-06-17T06:31:47.026Z,9.40
2017-06-17T06:34:15.207Z,7.60
2017-06-17T06:36:43.782Z,9.67
2017-06-17T06:39:12.091Z,12.93
2017-06-17T06:41:41.036Z,11.83
2017-06-17T06:44:09.642Z,12.13
2017-06-17T06:46:37.935Z,9.90
2017-06-17T06:49:06.876Z,11.47
2017-06-17T06:51:35.506Z,13.70
2017-06-17T06:54:04.441Z,4.67
2017-06-17T06:56:32.644Z,5.63
2017-06-17T06:59:01.197Z,7.47
2017-06-17T07:01:29.478Z,7.83
2017-06-17T07:03:57.694Z,10.03
2017-06-17T07:06:26.255Z,9.20
2017-06-17T07:08:54.432Z,10.33
2017-06-17T07:11:22.679Z,8.83
2017-06-17T07:13:51.395Z,13.57
2017-06-17T07:16:19.578Z,8.77
2017-06-17T07:18:47.748Z,6.60
2017-06-17T07:21:16.258Z,10.00
2017-06-17T07:23:44.450Z,5.33
2017-06-17T07:26:12.642Z,10.00
2017-06-17T07:28:41.368Z,6.13
2017-06-17T07:31:09.554Z,5.53
2017-06-17T07:33:38.507Z,8.23
2017-06-17T07:36:07.219Z,7.13
2017-06-17T07:38:35.398Z,4.43
2017-06-17T07:41:04.338Z,8.30
2017-06-17T07:43:32.943Z,11.63
2017-06-17T07:46:01.193Z,9.50
2017-06-17T07:48:29.364Z,9.37
2017-06-17T07:50:57.874Z,6.30
2017-06-17T07:53:26.082Z,8.97
2017-06-17T07:55:54.278Z,7.43
2017-06-17T07:58:22.912Z,4.57
2017-06-17T08:00:51.120Z,5.90
2017-06-17T08:03:19.349Z,8.30
2017-06-17T08:05:47.871Z,8.30
2017-06-17T08:08:16.797Z,7.40
2017-06-17T08:10:44.944Z,9.13
2017-06-17T08:13:13.471Z,15.40
2017-06-17T08:15:41.658Z,7.63
2017-06-17T08:18:09.821Z,6.37
2017-06-17T08:20:38.321Z,7.70
2017-06-17T08:23:06.488Z,9.50
2017-06-17T08:25:34.677Z,5.20
2017-06-17T08:28:03.993Z,5.07
2017-06-17T08:30:32.955Z,8.20
2017-06-17T08:33:01.151Z,6.53
2017-06-17T08:35:30.513Z,8.93
2017-06-17T08:37:58.677Z,8.57
2017-06-17T08:40:26.948Z,5.60
2017-06-17T08:42:55.491Z,9.40
2017-06-17T08:45:24.459Z,2.90
2017-06-17T08:47:52.662Z,8.33
2017-06-17T08:50:21.173Z,8.80
2017-06-17T08:52:49.475Z,2.40
2017-06-17T08:55:17.675Z,3.77
2017-06-17T08:57:46.959Z,6.87
2017-06-17T09:00:15.146Z,5.70
2017-06-17T09:02:44.090Z,10.40
2017-06-17T09:05:12.761Z,5.43
2017-06-17T09:07:41.019Z,7.13
2017-06-17T09:10:09.238Z,4.60
2017-06-17T09:12:37.923Z,6.00
2017-06-17T09:15:06.259Z,4.60
2017-06-17T09:17:34.467Z,5.60
2017-06-17T09:20:03.093Z,6.07
2017-06-17T09:22:32.042Z,4.63
2017-06-17T09:25:01.779Z,7.37
2017-06-17T09:27:32.177Z,6.23
2017-06-17T09:30:00.470Z,15.50
2017-06-17T09:32:28.642Z,4.37
2017-06-17T09:34:57.285Z,7.80
2017-06-17T09:37:25.468Z,13.00
2017-06-17T09:39:53.679Z,5.80
2017-06-17T09:42:22.302Z,3.53
2017-06-17T09:44:50.575Z,5.60
2017-06-17T09:47:18.827Z,8.33
2017-06-17T09:49:48.125Z,11.57
2017-06-17T09:52:17.135Z,6.70
2017-06-17T09:54:45.337Z,2.90
2017-06-17T09:57:13.887Z,6.83
2017-06-17T09:59:42.113Z,4.13
2017-06-17T10:02:14.058Z,3.33
2017-06-17T10:04:42.250Z,7.10
2017-06-17T10:07:10.480Z,6.80
2017-06-17T10:09:39.104Z,5.73
2017-06-17T10:12:07.385Z,5.50
2017-06-17T10:14:35.571Z,6.60
2017-06-17T10:17:04.257Z,8.87
2017-06-17T10:19:32.469Z,5.10
2017-06-17T10:22:00.656Z,4.73
2017-06-17T10:24:29.419Z,7.30
2017-06-17T10:26:57.627Z,11.80
2017-06-17T10:29:25.849Z,5.40
2017-06-17T10:31:54.522Z,5.90
2017-06-17T10:34:22.710Z,5.33
2017-06-17T10:36:50.872Z,3.80
2017-06-17T10:39:19.427Z,9.00
2017-06-17T10:41:47.695Z,4.53
2017-06-17T10:44:16.087Z,2.57
2017-06-17T10:46:44.680Z,4.77
2017-06-17T10:49:12.920Z,7.63
2017-06-17T10:51:41.305Z,10.00
2017-06-17T10:54:09.832Z,8.40
2017-06-17T10:56:38.143Z,8.53
2017-06-17T10:59:06.347Z,6.10
2017-06-17T11:01:36.509Z,12.37
2017-06-17T11:04:05.452Z,2.97
2017-06-17T11:06:33.632Z,5.53
2017-06-17T11:09:02.219Z,6.00
2017-06-17T11:11:30.465Z,3.43
2017-06-17T11:13:58.677Z,4.90
2017-06-17T11:16:27.259Z,4.33
2017-06-17T11:18:55.456Z,3.93
2017-06-17T11:21:23.619Z,3.60
2017-06-17T11:23:52.184Z,8.20
2017-06-17T11:26:20.402Z,3.73
2017-06-17T11:28:48.617Z,3.20
2017-06-17T11:31:16.855Z,4.33
2017-06-17T11:33:45.029Z,4.73
2017-06-17T11:36:13.228Z,3.63
2017-06-17T11:38:41.822Z,4.93
2017-06-17T11:41:10.017Z,6.00
2017-06-17T11:43:38.239Z,4.07
2017-06-17T11:46:06.535Z,2.87
2017-06-17T11:48:34.741Z,4.20
2017-06-17T11:51:02.952Z,11.83
2017-06-17T11:53:31.484Z,4.03
2017-06-17T11:55:59.727Z,3.83
2017-06-17T11:58:27.995Z,5.40
2017-06-17T12:00:56.616Z,6.73
2017-06-17T12:03:24.811Z,4.33
2017-06-17T12:05:53.125Z,7.60
2017-06-17T12:08:21.665Z,3.97
2017-06-17T12:10:49.864Z,4.17
2017-06-17T12:13:18.077Z,4.27
2017-06-17T12:15:46.679Z,5.90
2017-06-17T12:18:14.860Z,3.60
2017-06-17T12:20:43.063Z,6.87
2017-06-17T12:23:12.008Z,5.63
2017-06-17T12:25:40.224Z,8.60
2017-06-17T12:28:09.201Z,5.50
2017-06-17T12:30:37.465Z,5.33
2017-06-17T12:33:05.723Z,2.20
2017-06-17T12:35:33.914Z,11.57
2017-06-17T12:38:02.492Z,5.93
2017-06-17T12:40:30.759Z,3.03
2017-06-17T12:42:58.957Z,6.40
2017-06-17T12:45:28.223Z,6.40
2017-06-17T12:47:56.440Z,6.10
2017-06-17T12:50:24.664Z,9.53
2017-06-17T12:52:53.324Z,4.90
2017-06-17T12:55:21.561Z,4.60
2017-06-17T12:57:50.532Z,5.73
2017-06-17T13:00:19.818Z,7.63
2017-06-17T13:02:48.079Z,5.73
2017-06-17T13:05:16.260Z,6.10
2017-06-17T13:07:44.792Z,2.40
2017-06-17T13:10:12.994Z,4.23
2017-06-17T13:12:41.164Z,5.97
2017-06-17T13:15:10.856Z,5.37
2017-06-17T13:17:39.055Z,4.20
2017-06-17T13:20:07.264Z,4.93
2017-06-17T13:22:35.903Z,5.73
2017-06-17T13:25:04.113Z,2.30
2017-06-17T13:27:32.288Z,2.30
2017-06-17T13:30:00.804Z,2.50
2017-06-17T13:32:29.761Z,4.53
2017-06-17T13:34:58.072Z,4.17
2017-06-17T13:37:26.338Z,4.40
2017-06-17T13:39:55.302Z,3.40
2017-06-17T13:42:24.522Z,4.33
2017-06-17T13:44:53.195Z,3.93
2017-06-17T13:47:21.482Z,9.90
2017-06-17T13:49:49.683Z,5.47
2017-06-17T13:52:17.912Z,3.97
2017-06-17T13:54:46.088Z,4.90
2017-06-17T13:57:14.299Z,4.70
2017-06-17T13:59:42.534Z,9.37
2017-06-17T14:02:10.775Z,6.70
2017-06-17T14:04:39.003Z,3.13
2017-06-17T14:07:08.349Z,4.90
2017-06-17T14:09:36.563Z,6.40
2017-06-17T14:12:04.850Z,6.03
2017-06-17T14:14:33.072Z,4.30
2017-06-17T14:17:01.357Z,11.53
2017-06-17T14:19:29.568Z,6.13
2017-06-17T14:22:03.623Z,8.00
2017-06-17T14:24:31.793Z,6.53
2017-06-17T14:27:00.035Z,3.90
2017-06-17T14:29:29.556Z,6.30
2017-06-17T14:31:58.486Z,6.83
2017-06-17T14:34:26.679Z,8.33
2017-06-17T14:36:55.317Z,4.50
2017-06-17T14:39:23.494Z,4.30
2017-06-17T14:41:51.667Z,4.43
2017-06-17T14:44:20.295Z,5.63
2017-06-17T14:46:48.462Z,3.43
2017-06-17T14:49:16.653Z,12.43
2017-06-17T14:51:45.265Z,5.07
2017-06-17T14:54:14.218Z,4.80
2017-06-17T14:56:42.387Z,5.27
2017-06-17T14:59:10.597Z,3.80
2017-06-17T15:01:39.545Z,4.50
2017-06-17T15:04:07.733Z,5.93
2017-06-17T15:06:36.318Z,5.67
2017-06-17T15:09:04.551Z,5.90
2017-06-17T15:11:32.755Z,5.13
2017-06-17T15:14:01.059Z,8.00
2017-06-17T15:16:29.987Z,5.50
2017-06-17T15:18:58.178Z,3.33
2017-06-17T15:21:26.720Z,7.20
2017-06-17T15:23:55.679Z,2.53
2017-06-17T15:26:23.874Z,2.80
2017-06-17T15:28:53.183Z,3.50
2017-06-17T15:31:22.159Z,4.37
2017-06-17T15:33:50.322Z,2.60
2017-06-17T15:36:18.847Z,2.97
2017-06-17T15:38:47.040Z,4.63
2017-06-17T15:41:15.196Z,3.53
2017-06-17T15:43:44.656Z,3.97
2017-06-17T15:46:12.835Z,4.23
2017-06-17T15:48:41.302Z,4.03
2017-06-17T15:51:10.564Z,4.77
2017-06-17T15:53:38.809Z,4.53
2017-06-17T15:56:07.760Z,4.50
2017-06-17T15:58:35.958Z,6.67
2017-06-17T16:01:04.881Z,2.40
2017-06-17T16:03:33.050Z,3.90
2017-06-17T16:06:01.265Z,4.00
2017-06-17T16:08:29.531Z,3.47
2017-06-17T16:10:57.722Z,8.80
2017-06-17T16:13:26.302Z,4.10
2017-06-17T16:15:54.545Z,3.67
2017-06-17T16:18:22.741Z,2.80
2017-06-17T16:20:51.323Z,3.10
2017-06-17T16:23:19.571Z,4.07
2017-06-17T16:25:47.759Z,6.20
2017-06-17T16:28:16.254Z,4.63
2017-06-17T16:30:44.437Z,3.43
2017-06-17T16:33:12.605Z,2.60
2017-06-17T16:35:40.820Z,5.30
2017-06-17T16:38:09.015Z,2.93
2017-06-17T16:40:37.203Z,5.03
2017-06-17T16:43:05.423Z,4.80
2017-06-17T16:45:34.401Z,5.60
2017-06-17T16:48:02.575Z,5.87
2017-06-17T16:50:30.783Z,4.37
2017-06-17T16:52:58.950Z,4.10
2017-06-17T16:55:27.879Z,4.97
2017-06-17T16:57:56.348Z,5.40
2017-06-17T17:00:24.806Z,4.50
2017-06-17T17:02:53.026Z,4.83
2017-06-17T17:05:21.240Z,3.13
2017-06-17T17:07:50.167Z,8.33
2017-06-17T17:10:18.334Z,6.03
2017-06-17T17:12:46.602Z,6.17
2017-06-17T17:15:14.771Z,7.10
2017-06-17T17:17:42.951Z,10.23
2017-06-17T17:20:11.587Z,6.57
2017-06-17T17:22:39.775Z,2.60
2017-06-17T17:25:07.956Z,6.97
2017-06-17T17:27:36.545Z,4.67
2017-06-17T17:30:04.716Z,8.80
2017-06-17T17:32:33.671Z,6.63
2017-06-17T17:35:02.265Z,6.60
2017-06-17T17:37:30.456Z,4.30
2017-06-17T17:39:59.417Z,6.40
2017-06-17T17:42:27.996Z,6.37
2017-06-17T17:44:56.162Z,4.80
2017-06-17T17:47:24.332Z,6.23
2017-06-17T17:49:52.924Z,5.77
2017-06-17T17:52:21.103Z,6.30
2017-06-17T17:54:49.277Z,10.87
2017-06-17T17:57:17.865Z,9.87
2017-06-17T17:59:46.074Z,5.77
2017-06-17T18:02:14.263Z,5.70
2017-06-17T18:04:42.878Z,7.53
2017-06-17T18:07:11.075Z,6.60
2017-06-17T18:09:39.271Z,6.80
2017-06-17T18:12:08.269Z,9.30
2017-06-17T18:14:36.455Z,10.40
2017-06-17T18:17:04.633Z,8.10
2017-06-17T18:19:32.990Z,7.17
2017-06-17T18:22:02.009Z,7.57
2017-06-17T18:24:30.234Z,6.47
2017-06-17T18:26:58.438Z,4.70
2017-06-17T18:29:26.622Z,7.20
2017-06-17T18:31:54.804Z,5.93
2017-06-17T18:34:23.335Z,6.70
2017-06-17T18:36:51.491Z,7.10
2017-06-17T18:39:19.660Z,10.17
2017-06-17T18:41:47.916Z,13.00
2017-06-17T18:44:16.105Z,5.53
2017-06-17T18:46:44.288Z,10.90
2017-06-17T18:49:12.882Z,4.07
2017-06-17T18:51:41.099Z,5.90
2017-06-17T18:54:09.332Z,5.70
2017-06-17T18:56:37.847Z,4.93
2017-06-17T18:59:06.069Z,5.40
2017-06-17T19:01:34.251Z,3.60
2017-06-17T19:04:02.798Z,5.43
2017-06-17T19:06:31.017Z,4.00
2017-06-17T19:08:59.204Z,6.80
2017-06-17T19:11:28.567Z,8.03
2017-06-17T19:13:56.876Z,5.47
2017-06-17T19:16:25.069Z,5.83
2017-06-17T19:18:53.693Z,8.37
2017-06-17T19:21:21.864Z,5.33
2017-06-17T19:23:50.055Z,5.63
2017-06-17T19:26:18.294Z,7.57
2017-06-17T19:28:46.530Z,9.50
2017-06-17T19:31:14.717Z,4.20
2017-06-17T19:33:42.935Z,7.13
2017-06-17T19:36:11.123Z,8.97
2017-06-17T19:38:39.286Z,8.17
2017-06-17T19:43:41.993Z,5.73
2017-06-17T19:46:10.551Z,11.33
2017-06-17T19:48:38.738Z,9.13
2017-06-17T19:51:06.919Z,8.27
2017-06-17T19:53:35.488Z,6.13
2017-06-17T19:56:03.661Z,11.13
2017-06-17T19:58:31.896Z,8.67
2017-06-17T20:01:00.411Z,9.43
2017-06-17T20:03:28.624Z,8.53
2017-06-17T20:05:56.871Z,12.23
2017-06-17T20:08:25.172Z,7.47
2017-06-17T20:10:53.335Z,9.63
2017-06-17T20:13:21.570Z,8.73
2017-06-17T20:15:53.570Z,31.23
2017-06-17T20:18:21.746Z,60.73
2017-06-17T20:20:49.958Z,66.37
2017-06-17T20:23:18.212Z,58.17
2017-06-17T20:25:46.393Z,29.40
2017-06-17T20:28:14.667Z,28.53
2017-06-17T20:30:44.030Z,27.50
2017-06-17T20:33:12.230Z,23.90
2017-06-17T20:35:41.204Z,25.27
2017-06-17T20:38:09.715Z,18.83
2017-06-17T20:40:38.650Z,19.27
2017-06-17T20:43:06.850Z,16.90
2017-06-17T20:45:35.121Z,19.63
2017-06-17T20:48:03.285Z,18.70
2017-06-17T20:50:31.505Z,19.20
2017-06-17T20:53:00.166Z,23.37
2017-06-17T20:55:28.350Z,21.63
2017-06-17T20:57:57.627Z,21.27
2017-06-17T21:00:25.866Z,27.63
2017-06-17T21:02:54.063Z,19.97
2017-06-17T21:05:22.285Z,20.93
2017-06-17T21:07:51.275Z,12.77
2017-06-17T21:10:20.297Z,17.33
2017-06-17T21:12:48.565Z,16.70
2017-06-17T21:15:17.192Z,18.63
2017-06-17T21:17:45.452Z,24.07
2017-06-17T21:20:13.724Z,34.53
2017-06-17T21:22:42.363Z,33.37
2017-06-17T21:25:10.597Z,30.13
2017-06-17T21:27:38.799Z,27.50
2017-06-17T21:30:08.166Z,18.73
2017-06-17T21:32:36.363Z,25.40
2017-06-17T21:35:05.504Z,28.30
2017-06-17T21:37:33.715Z,23.67
2017-06-17T21:40:02.182Z,16.90
2017-06-17T21:42:30.514Z,14.40
2017-06-17T21:45:00.476Z,13.67
2017-06-17T21:47:28.655Z,16.93
2017-06-17T21:49:57.439Z,17.17
2017-06-17T21:52:25.646Z,22.53
2017-06-17T21:54:55.126Z,14.13
2017-06-17T21:57:23.303Z,19.73
2017-06-17T21:59:51.538Z,14.97
2017-06-17T22:02:19.744Z,9.33
2017-06-17T22:04:47.932Z,16.37
2017-06-17T22:07:16.522Z,13.50
2017-06-17T22:09:44.760Z,15.40
2017-06-17T22:12:12.980Z,8.80
2017-06-17T22:14:42.003Z,9.00
2017-06-17T22:17:10.155Z,12.80
2017-06-17T22:19:38.316Z,14.37
2017-06-17T22:22:07.651Z,10.40
2017-06-17T22:24:35.826Z,11.70
2017-06-17T22:27:04.092Z,12.80
2017-06-17T22:29:32.718Z,14.43
2017-06-17T22:32:00.924Z,11.80
2017-06-17T22:34:29.853Z,12.03
2017-06-17T22:36:58.457Z,15.90
2017-06-17T22:39:27.566Z,13.43
2017-06-17T22:41:55.760Z,13.97
2017-06-17T22:44:25.075Z,10.27
2017-06-17T22:46:53.306Z,15.83
2017-06-17T22:49:21.499Z,13.10
2017-06-17T22:51:50.021Z,12.63
2017-06-17T22:54:18.183Z,11.03
2017-06-17T22:56:46.365Z,18.10
2017-06-17T22:59:14.987Z,14.90
2017-06-17T23:01:43.189Z,9.50
2017-06-17T23:04:12.114Z,16.40
2017-06-17T23:06:40.330Z,11.43
2017-06-17T23:09:08.543Z,10.13
2017-06-17T23:11:36.715Z,19.37
2017-06-17T23:14:05.252Z,11.87
2017-06-17T23:16:33.415Z,8.20
2017-06-17T23:19:01.647Z,16.10
2017-06-17T23:21:29.870Z,10.33
2017-06-17T23:23:58.030Z,16.07
2017-06-17T23:26:26.221Z,12.27
2017-06-17T23:28:55.258Z,17.90
2017-06-17T23:31:23.427Z,11.90
2017-06-17T23:33:51.614Z,11.70
2017-06-17T23:36:22.485Z,13.80
2017-06-17T23:38:50.934Z,16.57
2017-06-17T23:41:19.131Z,14.47
2017-06-17T23:43:47.343Z,14.47
2017-06-17T23:46:15.543Z,16.20
2017-06-17T23:48:43.712Z,14.13
2017-06-17T23:51:12.343Z,13.67
2017-06-17T23:53:40.543Z,14.70
2017-06-17T23:56:08.741Z,16.27
2017-06-17T23:58:36.975Z,21.63
